createdAt,value
2022-12-05T00:02:23.375Z,71.60
2022-12-05T00:04:53.724Z,71.71
2022-12-05T00:07:23.688Z,71.49
2022-12-05T00:09:54.500Z,72.12
2022-12-05T00:12:24.972Z,72.42
2022-12-05T00:14:55.005Z,71.77
2022-12-05T00:17:25.260Z,72.07
2022-12-05T00:19:57.082Z,72.04
2022-12-05T00:22:29.718Z,72.11
2022-12-05T00:25:00.090Z,71.76
2022-12-05T00:27:30.269Z,71.82
2022-12-05T00:30:00.816Z,71.84
2022-12-05T00:32:32.573Z,71.92
2022-12-05T00:35:02.718Z,72.24
2022-12-05T00:37:32.887Z,72.17
2022-12-05T00:40:03.475Z,72.13
2022-12-05T00:42:34.412Z,72.14
2022-12-05T00:45:04.619Z,72.07
2022-12-05T00:47:38.585Z,71.82
2022-12-05T00:50:12.167Z,72.10
2022-12-05T00:52:42.708Z,71.83
2022-12-05T00:55:12.984Z,72.33
2022-12-05T00:57:42.932Z,72.00
2022-12-05T01:00:13.399Z,71.85
2022-12-05T01:02:43.540Z,71.95
2022-12-05T01:05:13.707Z,71.98
2022-12-05T01:07:44.972Z,71.61
2022-12-05T01:10:15.313Z,71.59
2022-12-05T01:12:45.450Z,71.66
2022-12-05T01:15:15.619Z,71.74
2022-12-05T01:17:45.811Z,71.86
2022-12-05T01:20:16.271Z,71.55
2022-12-05T01:22:46.432Z,70.99
2022-12-05T01:25:16.662Z,71.14
2022-12-05T01:27:47.758Z,71.04
2022-12-05T01:30:18.384Z,70.87
2022-12-05T01:32:48.549Z,70.17
2022-12-05T01:38:06.256Z,69.82
2022-12-05T01:40:41.108Z,69.71
2022-12-05T01:43:20.647Z,69.31
2022-12-05T01:45:50.861Z,69.46
2022-12-05T01:48:30.741Z,69.73
2022-12-05T01:51:20.482Z,69.28
2022-12-05T01:53:51.175Z,69.53
2022-12-05T01:56:22.456Z,69.79
2022-12-05T01:58:54.858Z,69.34
2022-12-05T02:01:26.490Z,69.66
2022-12-05T02:04:00.812Z,69.14
2022-12-05T02:06:31.272Z,68.86
2022-12-05T02:09:19.689Z,69.01
2022-12-05T02:11:56.784Z,68.87
2022-12-05T02:15:22.155Z,69.13
2022-12-05T02:18:23.618Z,68.97
2022-12-05T02:21:15.188Z,69.06
2022-12-05T02:23:47.635Z,69.16
2022-12-05T02:26:33.106Z,69.29
2022-12-05T02:29:32.177Z,68.78
2022-12-05T02:32:14.514Z,69.18
2022-12-05T02:34:59.327Z,68.57
2022-12-05T02:38:05.830Z,68.80
2022-12-05T02:40:52.734Z,68.37
2022-12-05T02:43:25.457Z,67.77
2022-12-05T02:46:22.924Z,68.03
2022-12-05T02:48:58.532Z,68.19
2022-12-05T02:51:33.711Z,67.70
2022-12-05T02:54:08.562Z,67.88
2022-12-05T02:56:40.719Z,67.64
2022-12-05T02:59:10.889Z,66.99
2022-12-05T03:01:41.352Z,67.05
2022-12-05T03:04:16.418Z,66.93
2022-12-05T03:07:09.205Z,66.82
2022-12-05T03:09:45.843Z,67.32
2022-12-05T03:12:21.167Z,67.69
2022-12-05T03:15:04.041Z,67.51
2022-12-05T03:18:06.947Z,67.06
2022-12-05T03:20:50.547Z,67.78
2022-12-05T03:23:33.613Z,66.91
2022-12-05T03:26:41.713Z,67.01
2022-12-05T03:29:48.903Z,67.08
2022-12-05T03:32:35.086Z,66.57
2022-12-05T03:35:28.392Z,66.68
2022-12-05T03:38:15.849Z,66.42
2022-12-05T03:41:04.002Z,65.88
2022-12-05T03:43:37.321Z,65.27
2022-12-05T03:46:36.203Z,65.11
2022-12-05T03:49:39.202Z,65.45
2022-12-05T03:52:45.792Z,65.31
2022-12-05T03:55:25.967Z,64.93
2022-12-05T03:58:04.827Z,64.61
2022-12-05T04:00:41.626Z,64.06
2022-12-05T04:03:41.194Z,63.22
2022-12-05T04:06:26.454Z,64.01
2022-12-05T04:09:03.381Z,63.58
2022-12-05T04:11:39.179Z,63.55
2022-12-05T04:14:33.860Z,63.12
2022-12-05T04:17:11.408Z,63.12
2022-12-05T04:20:12.667Z,63.02
2022-12-05T04:22:43.574Z,63.27
2022-12-05T04:25:35.336Z,63.36
2022-12-05T04:28:28.236Z,63.45
2022-12-05T04:31:21.696Z,62.77
2022-12-05T04:33:59.414Z,63.17
2022-12-05T04:36:58.285Z,62.81
2022-12-05T04:39:43.942Z,63.20
2022-12-05T04:42:19.079Z,63.33
2022-12-05T04:44:55.282Z,63.16
2022-12-05T04:47:31.085Z,62.29
2022-12-05T04:50:02.897Z,61.94
2022-12-05T04:52:34.730Z,61.96
2022-12-05T04:55:22.830Z,62.79
2022-12-05T04:57:57.381Z,62.81
2022-12-05T05:00:28.595Z,63.68
2022-12-05T05:03:27.835Z,63.71
2022-12-05T05:05:59.626Z,63.90
2022-12-05T05:08:31.937Z,63.93
2022-12-05T05:11:07.581Z,63.74
2022-12-05T05:16:28.543Z,64.28
2022-12-05T05:19:16.836Z,64.24
2022-12-05T05:21:47.054Z,64.18
2022-12-05T05:24:18.151Z,63.96
2022-12-05T05:29:53.013Z,64.08
2022-12-05T05:32:41.408Z,63.49
2022-12-05T05:35:29.958Z,62.91
2022-12-05T05:38:18.208Z,62.76
2022-12-05T05:40:48.424Z,62.73
2022-12-05T05:43:18.643Z,63.10
2022-12-05T05:45:48.602Z,62.96
2022-12-05T05:48:19.770Z,63.25
2022-12-05T05:50:50.375Z,63.37
2022-12-05T05:53:20.460Z,63.36
2022-12-05T05:55:50.443Z,62.83
2022-12-05T05:58:20.778Z,63.26
2022-12-05T06:00:52.540Z,63.75
2022-12-05T06:03:22.837Z,63.58
2022-12-05T06:06:03.867Z,63.62
2022-12-05T06:08:36.848Z,63.73
2022-12-05T06:11:18.955Z,63.46
2022-12-05T06:13:56.787Z,63.29
2022-12-05T06:16:27.231Z,63.93
2022-12-05T06:19:16.433Z,63.51
2022-12-05T06:21:46.715Z,63.43
2022-12-05T06:24:16.939Z,63.38
2022-12-05T06:27:05.228Z,63.43
2022-12-05T06:29:36.216Z,63.02
2022-12-05T06:32:07.370Z,62.99
2022-12-05T06:34:38.069Z,63.16
2022-12-05T06:37:10.557Z,63.30
2022-12-05T06:39:59.077Z,62.90
2022-12-05T06:42:29.381Z,63.43
2022-12-05T06:45:01.236Z,63.52
2022-12-05T06:47:31.308Z,63.17
2022-12-05T06:50:20.731Z,63.62
2022-12-05T06:52:50.836Z,63.30
2022-12-05T06:55:20.898Z,63.70
2022-12-05T06:57:51.069Z,63.48
2022-12-05T07:00:39.941Z,63.37
2022-12-05T07:03:12.911Z,63.38
2022-12-05T07:05:43.088Z,63.96
2022-12-05T07:08:13.176Z,63.87
2022-12-05T07:10:43.799Z,63.80
2022-12-05T07:13:15.816Z,63.54
2022-12-05T07:15:46.206Z,63.13
2022-12-05T07:18:36.116Z,63.17
2022-12-05T07:21:12.811Z,63.08
2022-12-05T07:23:45.280Z,62.28
2022-12-05T07:26:19.031Z,62.41
2022-12-05T07:28:50.471Z,62.29
2022-12-05T07:31:24.830Z,62.43
2022-12-05T07:33:55.504Z,62.88
2022-12-05T07:36:27.332Z,62.81
2022-12-05T07:39:00.086Z,63.03
2022-12-05T07:41:32.974Z,63.50
2022-12-05T07:44:08.869Z,63.65
2022-12-05T07:46:38.950Z,63.57
2022-12-05T07:49:10.243Z,63.53
2022-12-05T07:51:41.138Z,63.57
2022-12-05T07:54:11.275Z,64.05
2022-12-05T07:56:46.290Z,63.19
2022-12-05T07:59:18.022Z,62.78
2022-12-05T08:01:48.853Z,62.96
2022-12-05T08:04:19.687Z,63.09
2022-12-05T08:06:49.902Z,63.05
2022-12-05T08:09:20.024Z,63.33
2022-12-05T08:11:52.761Z,63.12
2022-12-05T08:14:23.865Z,63.15
2022-12-05T08:16:54.154Z,63.19
2022-12-05T08:19:24.364Z,63.10
2022-12-05T08:21:57.201Z,62.86
2022-12-05T08:24:28.546Z,62.48
2022-12-05T08:26:58.827Z,62.84
2022-12-05T08:29:28.887Z,62.43
2022-12-05T08:31:58.867Z,63.02
2022-12-05T08:34:29.492Z,62.90
2022-12-05T08:36:59.802Z,62.81
2022-12-05T08:39:33.905Z,62.73
2022-12-05T08:42:08.202Z,62.55
2022-12-05T08:44:38.300Z,62.66
2022-12-05T08:47:08.443Z,63.18
2022-12-05T08:49:38.419Z,62.55
2022-12-05T08:52:08.487Z,62.80
2022-12-05T08:54:38.988Z,63.00
2022-12-05T08:57:09.116Z,62.92
2022-12-05T08:59:39.066Z,62.55
2022-12-05T09:02:09.423Z,62.49
2022-12-05T09:04:39.523Z,62.61
2022-12-05T09:07:10.492Z,62.72
2022-12-05T09:09:40.752Z,62.73
2022-12-05T09:12:11.077Z,63.00
2022-12-05T09:14:41.095Z,63.28
2022-12-05T09:17:11.223Z,63.34
2022-12-05T09:19:41.975Z,63.61
2022-12-05T09:22:12.134Z,63.66
2022-12-05T09:24:42.055Z,64.21
2022-12-05T09:27:12.844Z,64.27
2022-12-05T09:29:43.049Z,64.35
2022-12-05T09:32:13.668Z,64.63
2022-12-05T09:34:44.344Z,64.93
2022-12-05T09:37:37.673Z,64.77
2022-12-05T09:40:06.021Z,64.04
2022-12-05T09:43:02.877Z,64.34
2022-12-05T09:45:52.011Z,64.53
2022-12-05T09:48:25.384Z,64.13
2022-12-05T09:51:01.787Z,64.14
2022-12-05T09:53:45.792Z,64.03
2022-12-05T09:56:26.926Z,64.28
2022-12-05T09:59:00.079Z,64.40
2022-12-05T10:01:43.712Z,64.83
2022-12-05T10:04:45.101Z,64.44
2022-12-05T10:07:18.105Z,64.60
2022-12-05T10:09:57.983Z,64.52
2022-12-05T10:13:10.028Z,64.42
2022-12-05T10:15:45.794Z,64.84
2022-12-05T10:18:54.394Z,64.90
2022-12-05T10:21:36.080Z,64.70
2022-12-05T10:24:16.938Z,64.92
2022-12-05T10:26:58.645Z,65.07
2022-12-05T10:29:52.564Z,65.32
2022-12-05T10:32:29.350Z,65.25
2022-12-05T10:35:16.644Z,65.81
2022-12-05T10:37:51.339Z,65.55
2022-12-05T10:40:21.949Z,65.69
2022-12-05T10:42:53.168Z,66.10
2022-12-05T10:45:27.250Z,66.12
2022-12-05T10:47:59.799Z,66.04
2022-12-05T10:50:50.852Z,66.00
2022-12-05T10:53:42.322Z,66.42
2022-12-05T10:56:45.296Z,65.73
2022-12-05T10:59:40.393Z,65.82
2022-12-05T11:02:25.896Z,65.76
2022-12-05T11:04:57.908Z,66.51
2022-12-05T11:07:34.425Z,66.40
2022-12-05T11:10:25.053Z,65.82
2022-12-05T11:13:00.472Z,65.98
2022-12-05T11:15:33.212Z,66.53
2022-12-05T11:18:21.453Z,66.37
2022-12-05T11:24:36.160Z,66.49
2022-12-05T11:27:18.530Z,66.16
2022-12-05T11:30:21.306Z,66.28
2022-12-05T11:32:52.359Z,65.77
2022-12-05T11:35:28.585Z,65.85
2022-12-05T11:38:02.521Z,66.20
2022-12-05T11:40:38.978Z,65.32
2022-12-05T11:43:24.191Z,65.05
2022-12-05T11:46:16.829Z,65.39
2022-12-05T11:48:52.987Z,65.80
2022-12-05T11:51:56.267Z,65.66
2022-12-05T11:55:14.782Z,65.77
2022-12-05T11:57:59.637Z,65.77
2022-12-05T12:03:52.821Z,65.30
2022-12-05T12:06:47.481Z,65.54
2022-12-05T12:09:41.420Z,65.46
2022-12-05T12:13:04.835Z,64.95
2022-12-05T12:16:13.414Z,65.66
2022-12-05T12:19:12.629Z,65.69
2022-12-05T12:22:05.563Z,65.47
2022-12-05T12:25:33.800Z,65.36
2022-12-05T12:28:24.745Z,65.68
2022-12-05T12:31:09.869Z,65.97
2022-12-05T12:33:58.004Z,65.92
2022-12-05T12:36:34.099Z,66.06
2022-12-05T12:39:18.952Z,65.68
2022-12-05T12:42:10.175Z,65.83
2022-12-05T12:44:43.091Z,65.73
2022-12-05T12:47:31.340Z,65.67
2022-12-05T12:50:11.707Z,65.74
2022-12-05T12:53:20.191Z,65.80
2022-12-05T12:56:03.656Z,66.11
2022-12-05T12:58:55.247Z,65.76
2022-12-05T13:01:31.181Z,65.95
2022-12-05T13:04:32.346Z,65.65
2022-12-05T13:07:18.045Z,65.84
2022-12-05T13:10:20.136Z,65.92
2022-12-05T13:12:51.515Z,64.88
2022-12-05T13:15:30.579Z,65.73
2022-12-05T13:20:51.478Z,65.37
2022-12-05T13:23:26.483Z,65.54
2022-12-05T13:25:59.381Z,65.30
2022-12-05T13:28:44.419Z,65.46
2022-12-05T13:31:43.343Z,65.41
2022-12-05T13:34:37.622Z,65.84
2022-12-05T13:37:44.606Z,65.79
2022-12-05T13:40:53.142Z,66.25
2022-12-05T13:43:30.034Z,66.53
2022-12-05T13:46:21.934Z,66.59
2022-12-05T13:49:19.617Z,66.30
2022-12-05T13:51:50.040Z,66.28
2022-12-05T13:54:25.064Z,66.43
2022-12-05T14:00:08.544Z,65.85
2022-12-05T14:02:45.004Z,65.75
2022-12-05T14:05:21.332Z,65.72
2022-12-05T14:08:03.633Z,65.99
2022-12-05T14:10:34.256Z,65.80
2022-12-05T14:13:29.097Z,66.13
2022-12-05T14:16:28.101Z,66.03
2022-12-05T14:19:43.121Z,65.89
2022-12-05T14:22:31.871Z,65.54
2022-12-05T14:26:55.209Z,66.24
2022-12-05T14:29:37.019Z,66.31
2022-12-05T14:32:30.885Z,66.24
2022-12-05T14:35:13.101Z,66.11
2022-12-05T14:38:09.336Z,66.43
2022-12-05T14:40:44.983Z,66.74
2022-12-05T14:43:31.832Z,66.51
2022-12-05T14:46:08.923Z,66.70
2022-12-05T14:48:47.571Z,66.71
2022-12-05T14:51:33.399Z,66.44
2022-12-05T14:54:14.627Z,66.59
2022-12-05T14:56:45.903Z,66.56
2022-12-05T14:59:39.054Z,66.72
2022-12-05T15:02:18.963Z,66.68
2022-12-05T15:04:56.944Z,66.41
2022-12-05T15:07:43.256Z,66.81
2022-12-05T15:10:37.321Z,66.58
2022-12-05T15:16:19.361Z,66.87
2022-12-05T15:18:54.504Z,66.74
2022-12-05T15:21:47.478Z,66.72
2022-12-05T15:24:22.631Z,66.44
2022-12-05T15:26:59.553Z,66.34
2022-12-05T15:29:35.027Z,66.50
2022-12-05T15:32:18.334Z,66.59
2022-12-05T15:34:57.043Z,66.09
2022-12-05T15:37:48.378Z,66.43
2022-12-05T15:40:24.117Z,66.14
2022-12-05T15:42:59.907Z,66.18
2022-12-05T15:45:32.884Z,66.28
2022-12-05T15:50:55.341Z,66.13
2022-12-05T15:53:36.546Z,66.34
2022-12-05T15:56:26.896Z,67.08
2022-12-05T15:59:25.263Z,67.16
2022-12-05T16:02:04.433Z,66.75
2022-12-05T16:04:45.642Z,66.60
2022-12-05T16:07:17.849Z,66.78
2022-12-05T16:09:49.815Z,66.58
2022-12-05T16:12:58.151Z,66.42
2022-12-05T16:15:32.925Z,66.17
2022-12-05T16:18:06.410Z,65.88
2022-12-05T16:20:38.945Z,65.80
2022-12-05T16:23:28.341Z,65.91
2022-12-05T16:26:34.300Z,65.75
2022-12-05T16:29:06.605Z,65.72
2022-12-05T16:31:37.238Z,65.68
2022-12-05T16:34:10.701Z,65.89
2022-12-05T16:36:53.584Z,65.16
2022-12-05T16:39:24.642Z,65.58
2022-12-05T16:41:55.138Z,65.20
2022-12-05T16:44:48.740Z,65.35
2022-12-05T16:47:45.008Z,65.62
2022-12-05T16:50:35.334Z,65.48
2022-12-05T16:53:27.346Z,65.45
2022-12-05T16:55:58.499Z,65.63
2022-12-05T16:58:32.294Z,65.40
2022-12-05T17:01:05.476Z,65.68
2022-12-05T17:03:37.263Z,65.51
2022-12-05T17:06:07.801Z,65.85
2022-12-05T17:08:37.994Z,65.84
2022-12-05T17:11:09.009Z,65.70
2022-12-05T17:13:39.412Z,65.78
2022-12-05T17:16:10.191Z,65.95
2022-12-05T17:18:40.385Z,65.70
2022-12-05T17:21:18.474Z,65.96
2022-12-05T17:23:49.725Z,66.00
2022-12-05T17:26:21.143Z,65.98
2022-12-05T17:28:52.137Z,65.75
2022-12-05T17:31:24.878Z,65.65
2022-12-05T17:33:56.478Z,65.86
2022-12-05T17:36:26.941Z,65.99
2022-12-05T17:38:57.090Z,65.71
2022-12-05T17:41:27.117Z,66.12
2022-12-05T17:43:57.783Z,66.38
2022-12-05T17:46:28.054Z,65.88
2022-12-05T17:48:58.308Z,66.13
2022-12-05T17:51:29.004Z,65.89
2022-12-05T17:53:59.380Z,65.71
2022-12-05T17:56:30.026Z,65.67
2022-12-05T17:59:04.234Z,65.65
2022-12-05T18:01:37.589Z,65.91
2022-12-05T18:04:07.964Z,65.98
2022-12-05T18:06:38.077Z,65.64
2022-12-05T18:09:08.291Z,65.61
2022-12-05T18:11:38.230Z,65.86
2022-12-05T18:14:08.201Z,65.55
2022-12-05T18:16:38.338Z,65.91
2022-12-05T18:19:10.396Z,65.67
2022-12-05T18:21:40.938Z,65.89
2022-12-05T18:24:11.152Z,65.69
2022-12-05T18:26:41.512Z,65.87
2022-12-05T18:29:11.678Z,65.88
2022-12-05T18:31:43.740Z,66.16
2022-12-05T18:34:14.045Z,65.86
2022-12-05T18:36:44.501Z,65.84
2022-12-05T18:42:03.841Z,65.75
2022-12-05T18:44:34.916Z,65.82
2022-12-05T18:47:05.525Z,66.22
2022-12-05T18:49:35.805Z,65.86
2022-12-05T18:52:05.877Z,65.77
2022-12-05T18:55:09.831Z,66.11
2022-12-05T18:57:45.766Z,65.79
2022-12-05T19:00:16.542Z,66.15
2022-12-05T19:02:46.821Z,66.14
2022-12-05T19:05:17.054Z,66.12
2022-12-05T19:07:48.671Z,66.06
2022-12-05T19:10:19.011Z,65.89
2022-12-05T19:12:49.078Z,66.10
2022-12-05T19:18:04.882Z,66.09
2022-12-05T19:20:34.860Z,65.98
2022-12-05T19:23:04.786Z,66.14
2022-12-05T19:25:56.604Z,66.19
2022-12-05T19:28:27.144Z,66.15
2022-12-05T19:31:15.749Z,66.18
2022-12-05T19:33:48.223Z,66.12
2022-12-05T19:39:16.116Z,66.14
2022-12-05T19:41:46.889Z,66.46
2022-12-05T19:44:17.495Z,66.10
2022-12-05T19:46:47.739Z,66.13
2022-12-05T19:49:22.373Z,65.88
2022-12-05T19:51:52.646Z,66.50
2022-12-05T19:54:24.415Z,66.19
2022-12-05T19:56:55.914Z,66.29
2022-12-05T19:59:44.430Z,66.14
2022-12-05T20:02:14.864Z,65.92
2022-12-05T20:04:45.450Z,66.03
2022-12-05T20:07:15.718Z,65.67
2022-12-05T20:09:45.997Z,66.11
2022-12-05T20:12:16.328Z,65.72
2022-12-05T20:14:46.292Z,66.17
2022-12-05T20:17:16.476Z,65.61
2022-12-05T20:19:47.375Z,65.47
2022-12-05T20:22:17.549Z,65.70
2022-12-05T20:24:47.700Z,65.18
2022-12-05T20:27:17.692Z,65.33
2022-12-05T20:29:47.849Z,65.42
2022-12-05T20:32:18.444Z,65.11
2022-12-05T20:34:48.714Z,65.13
2022-12-05T20:37:18.805Z,64.74
2022-12-05T20:39:48.889Z,64.88
2022-12-05T20:42:20.034Z,65.07
2022-12-05T20:44:50.274Z,64.83
2022-12-05T20:47:21.022Z,64.94
2022-12-05T20:49:51.182Z,64.51
2022-12-05T20:52:21.257Z,64.68
2022-12-05T20:54:51.274Z,64.44
2022-12-05T20:57:21.408Z,64.44
2022-12-05T20:59:51.559Z,64.56
2022-12-05T21:02:22.378Z,64.48
2022-12-05T21:04:52.605Z,64.49
2022-12-05T21:07:22.674Z,64.20
2022-12-05T21:09:52.602Z,64.06
2022-12-05T21:12:23.368Z,63.93
2022-12-05T21:14:54.762Z,64.46
2022-12-05T21:17:43.318Z,63.88
2022-12-05T21:20:13.875Z,64.21
2022-12-05T21:22:43.965Z,63.95
2022-12-05T21:25:13.961Z,64.03
2022-12-05T21:27:43.965Z,64.14
2022-12-05T21:30:14.859Z,64.02
2022-12-05T21:32:45.661Z,63.93
2022-12-05T21:35:15.964Z,64.04
2022-12-05T21:37:46.128Z,64.22
2022-12-05T21:40:16.382Z,64.22
2022-12-05T21:42:46.322Z,63.64
2022-12-05T21:45:16.382Z,63.70
2022-12-05T21:47:47.195Z,63.48
2022-12-05T21:53:21.908Z,64.03
2022-12-05T21:56:01.931Z,63.99
2022-12-05T21:58:32.136Z,63.72
2022-12-05T22:01:02.546Z,63.42
2022-12-05T22:03:32.740Z,64.00
2022-12-05T22:06:11.464Z,63.79
2022-12-05T22:08:42.157Z,63.92
2022-12-05T22:11:16.716Z,63.54
2022-12-05T22:13:48.159Z,63.72
2022-12-05T22:16:19.764Z,63.63
2022-12-05T22:18:50.803Z,63.52
2022-12-05T22:21:22.966Z,63.35
2022-12-05T22:23:53.387Z,63.21
2022-12-05T22:26:26.335Z,63.69
2022-12-05T22:28:58.368Z,63.85
2022-12-05T22:31:28.557Z,63.43
2022-12-05T22:33:58.789Z,63.99
2022-12-05T22:36:28.812Z,63.87
2022-12-05T22:38:58.784Z,64.12
2022-12-05T22:41:29.244Z,63.45
2022-12-05T22:44:02.134Z,63.13
2022-12-05T22:46:32.380Z,63.25
2022-12-05T22:49:05.432Z,63.04
2022-12-05T22:51:35.929Z,63.72
2022-12-05T22:55:20.917Z,64.17
2022-12-05T22:57:50.993Z,64.38
2022-12-05T23:00:21.221Z,64.70
2022-12-05T23:02:51.399Z,65.23
2022-12-05T23:05:21.601Z,65.41
2022-12-05T23:07:52.075Z,65.72
2022-12-05T23:10:22.347Z,65.60
2022-12-05T23:12:52.455Z,65.79
2022-12-05T23:15:25.504Z,66.15
2022-12-05T23:17:57.045Z,66.14
2022-12-05T23:20:27.278Z,65.97
2022-12-05T23:22:57.463Z,66.06
2022-12-05T23:25:27.405Z,65.89
2022-12-05T23:27:57.295Z,65.93
2022-12-05T23:30:27.456Z,65.99
2022-12-05T23:32:57.494Z,65.94
2022-12-05T23:35:27.627Z,65.79
2022-12-05T23:37:57.549Z,65.59
2022-12-05T23:40:27.512Z,65.92
2022-12-05T23:42:57.487Z,66.06
2022-12-05T23:48:12.897Z,66.24
2022-12-05T23:50:43.027Z,65.95
2022-12-05T23:53:14.713Z,66.18
2022-12-05T23:55:44.969Z,66.14
2022-12-05T23:58:14.945Z,66.09
